XS43 weather

Medina River Ranch Airport
Pipe Creek, Texas, United States

Public forecast

Using degrees Fahrenheit for public forecast. Weather courtesy of forecast.io.

METAR (pilot weather report)

Closest report is Boerne Stage Field, 14.2 nm (26.2 km) ENE. Retrieved 2019/09/17 05:35 UTC (23 minutes ago):

K5C1 170535Z AUTO 00000KT 10SM CLR 24/18 A3000 RMK AO1

TAF (pilot weather forecast)

Closest forecast is Lackland Air Force Base, 25.7 nm (47.6 km) SE. Retrieved 2019/09/17 02:25 UTC (4 hours ago):

TAF KSKF 170200Z 1702/1808 07009KT 9999 FEW060 QNH2990INS BECMG 1716/1717 04009KT 9999 FEW040 QNH2983INS BECMG 1720/1721 06012KT 9999 BKN065 BKN250 QNH2980INS BECMG 1804/1805 03006KT 9999 BKN050 QNH2987INS TX35/1721Z TN23/1712Z